Hauptseite
METAR-TAF:

METAR-TAF

Flughäfen :

Flughafen Dschibuti

Dschibuti, Dschibuti

Breite: 11-33N, Länge: 043-10E, Höhe: 49 m

Beobachtung

Neuester Wetterbericht von vor 13 Stunden und 38 Minuten, um 11:00 UTC
Wind 10 kt aus Nordost
Temperatur 32°C
Luftfeuchtigkeit 52%
Luftdruck 1013 hPa
Leicht bewölkt in der Höhe von 2300 ft
Aufgelockert bewölkt in der Höhe von 3000 ft

METAR: HDAM 201100Z 05010KT 9/9 FEW023 SCT030 32/21 Q1013

Zeit: 03:38 (00:38 UTC)


TAF: fehlend

Wetterbeobachtungen und Prognosen von mehr als 4000 Flughäfen (METAR und TAF Bericht).

Die verfügbaren Stationen werden durch gelbe und rote Markierungen auf der Karte dargestellt.

Führen Sie die Maus auf sie, um den Namen der Station zu sehen.

Darauf klicken, um die Beobachtung von Wetterbeobachtungen und Prognosen zu sehen.

Um die Karte zu ändern : klicken Sie auf den grünen Tasten mit einem schwarzen Kreuz Zum Vergrößern, auf den grünen Button mit einem Gedankenstrich zu verkleinern, oder auf die grünen Pfeile für benachbarte Karten.


METAR-TAF: